Flight Track Log - Related Links

Times and Time Zones

All times are in EST time to prevent confusion due to time zone crossing. See the N525AL flight status page for this flight to view local times or setup timezone preferences in your user account.

Time Position Orientation Groundspeed Altitude Reporting Facility
EST Latitude Longitude Course Direction KTS MPH feet Rate Location/Type
Wed 01:05:51 PM 39.7506 -82.6114 97° East 151 174 2,800  Level Indianapolis Center
Wed 01:07:04 PM 39.7592 -82.5244 83° East 225 259 4,900 2,015 Climbing Indianapolis Center
Wed 01:08:05 PM 39.7733 -82.4403 78° East 234 269 7,300 2,390 Climbing Indianapolis Center
Wed 01:09:07 PM 39.7864 -82.3525 79° East 243 280 9,800 2,226 Climbing Indianapolis Center
Wed 01:10:09 PM 39.8036 -82.2439 78° East 253 291 11,900 1,854 Climbing Indianapolis Center
Wed 01:11:10 PM 39.8189 -82.1464 78° East 268 308 13,600 1,610 Climbing Indianapolis Center
Wed 01:12:12 PM 39.8336 -82.0458 79° East 279 321 15,200 1,500 Climbing Indianapolis Center
Wed 01:13:14 PM 39.8506 -81.9411 78° East 292 336 16,700 1,220 Climbing Indianapolis Center
Wed 01:14:15 PM 39.8675 -81.8308 79° East 306 352 17,700 1,073 Climbing Indianapolis Center
Wed 01:15:17 PM 39.8850 -81.7133 79° East 323 372 18,900 1,113 Climbing Indianapolis Center
Wed 01:16:19 PM 39.9031 -81.5931 79° East 334 384 20,000 1,220 Climbing Indianapolis Center
Wed 01:17:20 PM 39.9256 -81.4436 79° East 348 400 21,400 1,220 Climbing Indianapolis Center
Wed 01:18:22 PM 39.9436 -81.3261 79° East 354 407 22,500 1,065 Climbing Indianapolis Center
Wed 01:19:24 PM 39.9647 -81.1958 78° East 356 410 23,600 976 Climbing Indianapolis Center
Wed 01:20:25 PM 39.9775 -81.0653 83° East 360 414 24,500 683 Climbing Indianapolis Center
Wed 01:21:27 PM 39.9978 -80.9336 79° East 364 419 25,000 242 Climbing Indianapolis Center
Wed 01:22:29 PM 40.0144 -80.7694 82° East 382 440 25,000  Level Indianapolis Center
Wed 01:23:30 PM 40.0142 -80.6272 90° East 390 449 25,000  Level Indianapolis Center
Wed 01:24:32 PM 40.0128 -80.4825 91° East 395 455 25,000  Level Indianapolis Center
Wed 01:25:34 PM 40.0122 -80.3397 90° East 397 457 25,000  Level Indianapolis Center
Wed 01:26:35 PM 40.0278 -80.1978 82° East 407 468 25,000  Level Indianapolis Center
Wed 01:27:37 PM 40.0836 -80.0675 61° Northeast 408 470 25,000  Level Indianapolis Center
Wed 01:29:02 PM 40.1681 -79.8836 59° Northeast 409 471 25,000  Level Cleveland Center
Wed 01:30:04 PM 40.2256 -79.7547 60° Northeast 410 472 25,000  Level Cleveland Center
Wed 01:31:06 PM 40.2811 -79.6264 60° Northeast 409 471 25,000  Level Cleveland Center
Wed 01:32:08 PM 40.3372 -79.4969 60° Northeast 409 471 25,000  Level Cleveland Center
Wed 01:33:09 PM 40.4050 -79.3433 60° Northeast 409 471 25,000  Level Cleveland Center
Wed 01:34:11 PM 40.4611 -79.2150 60° Northeast 408 470 25,000  Level Cleveland Center
Wed 01:35:13 PM 40.5153 -79.0872 61° Northeast 405 466 25,000  Level Cleveland Center
Wed 01:36:15 PM 40.5706 -78.9589 60° Northeast 405 466 25,000  Level Cleveland Center
Wed 01:37:17 PM 40.6250 -78.8319 60° Northeast 403 464 25,000  Level Cleveland Center
Wed 01:38:18 PM 40.6797 -78.7050 60° Northeast 402 463 25,000  Level Cleveland Center
Wed 01:39:20 PM 40.7447 -78.5517 61° Northeast 403 464 25,000  Level Cleveland Center
Wed 01:40:22 PM 40.7983 -78.4244 61° Northeast 403 464 25,000  Level Cleveland Center
Wed 01:41:24 PM 40.8511 -78.2961 61° Northeast 404 465 25,000  Level Cleveland Center
Wed 01:42:25 PM 40.9058 -78.1694 60° Northeast 403 464 25,000  Level Cleveland Center
Wed 01:43:27 PM 40.9594 -78.0406 61° Northeast 404 465 25,000  Level Cleveland Center
Wed 01:44:29 PM 41.0233 -77.8858 61° Northeast 404 465 25,000  Level Cleveland Center
Wed 01:45:30 PM 41.0769 -77.7564 61° Northeast 403 464 25,000  Level Cleveland Center
Wed 01:46:32 PM 41.1292 -77.6264 62° Northeast 404 465 25,000  Level Cleveland Center
Wed 01:47:34 PM 41.1836 -77.4950 61° Northeast 407 468 25,000  Level Cleveland Center
Wed 01:48:36 PM 41.2369 -77.3658 61° Northeast 404 465 25,000  Level Cleveland Center
Wed 01:49:37 PM 41.2903 -77.2339 62° Northeast 406 467 25,000  Level Cleveland Center
Wed 01:50:39 PM 41.3536 -77.0761 62° Northeast 406 467 25,000  Level Cleveland Center
Wed 01:51:41 PM 41.4069 -76.9428 62° Northeast 408 470 25,000  Level Cleveland Center
Wed 01:52:42 PM 41.4603 -76.8111 62° Northeast 407 468 25,000  Level Cleveland Center
Wed 01:53:54 PM 41.5281 -76.6456 61° Northeast 395 455 25,000  Level New York Center
Wed 01:54:54 PM 41.5806 -76.5086 63° Northeast 400 460 25,000  Level New York Center
Wed 01:55:54 PM 41.6328 -76.3744 62° Northeast 400 460 25,000  Level New York Center
Wed 01:56:54 PM 41.6869 -76.2400 62° Northeast 400 460 25,000  Level New York Center
Wed 01:57:54 PM 41.7392 -76.1025 63° Northeast 400 460 25,000 -228 Level New York Center
Wed 01:59:32 PM 41.8242 -75.8875 62° Northeast 414 476 24,400 -415 Descending Boston Center
Wed 02:00:33 PM 41.8775 -75.7494 63° Northeast 417 480 23,900 -639 Descending Boston Center
Wed 02:01:34 PM 41.9297 -75.6122 63° Northeast 414 476 23,100 -934 Descending Boston Center
Wed 02:02:35 PM 41.9800 -75.4786 63° Northeast 403 464 22,000 -1,220 Descending Boston Center
Wed 02:03:37 PM 42.0286 -75.3494 63° Northeast 390 449 20,600 -1,317 Descending Boston Center
Wed 02:04:38 PM 42.0311 -75.2136 89° East 385 443 19,300 -1,230 Descending Boston Center
Wed 02:05:39 PM 42.0069 -75.0706 103° East 358 412 18,100 -639 Descending Boston Center
Wed 02:06:40 PM 41.9850 -74.9339 102° East 348 400 18,000 -98 Descending Boston Center
Wed 02:07:41 PM 41.9611 -74.8092 104° East 344 396 17,900 -780 Descending Boston Center
Wed 02:08:43 PM 41.9397 -74.6894 103° East 330 380 16,400 -2,049 Descending Boston Center
Wed 02:09:44 PM 41.9058 -74.5839 113° Southeast 309 356 13,700 -2,459 Descending Boston Center
Wed 02:10:45 PM 41.8519 -74.4878 127° Southeast 295 339 11,400 -1,328 Descending Boston Center
Wed 02:11:46 PM 41.8025 -74.4161 133° Southeast 259 298 11,000 -246 Descending Boston Center
Wed 02:12:47 PM 41.7542 -74.3503 135° Southeast 252 290 10,900 -439 Descending Boston Center
Wed 02:13:49 PM 41.7072 -74.2847 134° Southeast 247 284 10,100 -878 Descending Boston Center
Wed 02:14:50 PM 41.6594 -74.2192 134° Southeast 231 266 9,100 -934 Descending Boston Center
Wed 02:15:51 PM 41.6139 -74.1606 136° Southeast 227 261 8,200 -885 Descending Boston Center
Wed 02:16:52 PM 41.5675 -74.1039 138° Southeast 225 259 7,300 -683 Descending Boston Center
Wed 02:17:54 PM 41.5203 -74.0472 138° Southeast 226 260 6,800 -634 Descending Boston Center
Wed 02:18:55 PM 41.4786 -73.9983 139° Southeast 233 268 6,000 -836 Descending Boston Center
Wed 02:19:56 PM 41.4153 -73.9328 142° Southeast 236 272 5,100 -1,036 Descending Boston Center
Wed 02:21:14 PM 41.3500 -73.8667 143° Southeast 230 265 3,600 -875 Descending New York TRACON
Wed 02:22:20 PM 41.3167 -73.8000 124° Southeast 209 241 3,000 -286 Descending New York TRACON
Wed 02:23:20 PM 41.3333 -73.7333 72° East 176 203 3,000  Level New York TRACON
Wed 02:24:20 PM 41.3333 -73.6833 90° East 153 176 3,000 -200 Level New York TRACON
Wed 02:25:20 PM 41.3333 -73.6333 90° East 132 152 2,600 -450 Descending New York TRACON
Wed 02:26:20 PM 41.3500 -73.5833 66° East 121 139 2,100 -450 Descending New York TRACON
Wed 02:27:20 PM 41.3500 -73.5500 90° East 103 119 1,700 -400 Descending New York TRACON
Wed 02:28:20 PM 41.3667 -73.5167 56° Northeast 102 117 1,300 -400 Descending New York TRACON

Login

Don't have an account? Register now (free) for customized features, flight alerts, and more!